sensor_id;sensor_type;location;lat;lon;timestamp;P1;durP1;ratioP1;P2;durP2;ratioP2
67839;SDS011;54636;51.684;5.142;2022-10-01T00:00:13;2.72;;;2.53;;
67839;SDS011;54636;51.684;5.142;2022-10-01T00:02:39;3.70;;;3.40;;
67839;SDS011;54636;51.684;5.142;2022-10-01T00:05:05;3.42;;;3.22;;
67839;SDS011;54636;51.684;5.142;2022-10-01T00:07:41;4.25;;;3.92;;
67839;SDS011;54636;51.684;5.142;2022-10-01T00:10:08;4.88;;;2.85;;
67839;SDS011;54636;51.684;5.142;2022-10-01T00:12:35;3.60;;;3.40;;
67839;SDS011;54636;51.684;5.142;2022-10-01T00:15:02;3.22;;;3.03;;
67839;SDS011;54636;51.684;5.142;2022-10-01T00:17:33;6.53;;;3.03;;
67839;SDS011;54636;51.684;5.142;2022-10-01T00:19:59;4.20;;;3.47;;
67839;SDS011;54636;51.684;5.142;2022-10-01T00:22:26;5.32;;;4.28;;
67839;SDS011;54636;51.684;5.142;2022-10-01T00:24:51;3.50;;;2.75;;
67839;SDS011;54636;51.684;5.142;2022-10-01T00:27:16;5.18;;;3.70;;
67839;SDS011;54636;51.684;5.142;2022-10-01T00:29:42;5.60;;;3.90;;
67839;SDS011;54636;51.684;5.142;2022-10-01T00:32:09;4.10;;;3.78;;
67839;SDS011;54636;51.684;5.142;2022-10-01T00:34:34;4.28;;;3.72;;
67839;SDS011;54636;51.684;5.142;2022-10-01T00:37:00;8.07;;;3.40;;
67839;SDS011;54636;51.684;5.142;2022-10-01T00:39:25;3.95;;;3.75;;
67839;SDS011;54636;51.684;5.142;2022-10-01T00:41:51;3.33;;;3.10;;
67839;SDS011;54636;51.684;5.142;2022-10-01T00:47:00;3.90;;;3.47;;
67839;SDS011;54636;51.684;5.142;2022-10-01T00:49:35;4.05;;;3.30;;
67839;SDS011;54636;51.684;5.142;2022-10-01T00:52:05;4.95;;;2.78;;
67839;SDS011;54636;51.684;5.142;2022-10-01T00:54:45;6.20;;;3.45;;
67839;SDS011;54636;51.684;5.142;2022-10-01T00:59:41;3.97;;;3.63;;
67839;SDS011;54636;51.684;5.142;2022-10-01T01:02:07;4.95;;;3.38;;
67839;SDS011;54636;51.684;5.142;2022-10-01T01:04:32;3.97;;;3.65;;
67839;SDS011;54636;51.684;5.142;2022-10-01T01:06:58;2.42;;;2.33;;
67839;SDS011;54636;51.684;5.142;2022-10-01T01:09:28;3.03;;;2.83;;
67839;SDS011;54636;51.684;5.142;2022-10-01T01:17:31;3.47;;;3.03;;
67839;SDS011;54636;51.684;5.142;2022-10-01T01:22:39;4.32;;;2.53;;
67839;SDS011;54636;51.684;5.142;2022-10-01T01:25:16;3.13;;;2.83;;
67839;SDS011;54636;51.684;5.142;2022-10-01T01:27:45;2.90;;;2.70;;
67839;SDS011;54636;51.684;5.142;2022-10-01T01:30:29;1.55;;;1.55;;
67839;SDS011;54636;51.684;5.142;2022-10-01T01:32:57;2.40;;;2.20;;
67839;SDS011;54636;51.684;5.142;2022-10-01T01:35:29;2.50;;;2.30;;
67839;SDS011;54636;51.684;5.142;2022-10-01T01:40:26;2.88;;;2.08;;
67839;SDS011;54636;51.684;5.142;2022-10-01T01:42:55;2.03;;;1.90;;
67839;SDS011;54636;51.684;5.142;2022-10-01T01:45:24;1.92;;;1.73;;
67839;SDS011;54636;51.684;5.142;2022-10-01T01:47:54;2.03;;;1.92;;
67839;SDS011;54636;51.684;5.142;2022-10-01T01:50:23;2.13;;;1.98;;
67839;SDS011;54636;51.684;5.142;2022-10-01T01:52:49;2.17;;;1.98;;
67839;SDS011;54636;51.684;5.142;2022-10-01T01:55:18;1.70;;;1.60;;
67839;SDS011;54636;51.684;5.142;2022-10-01T01:57:44;4.78;;;2.10;;
67839;SDS011;54636;51.684;5.142;2022-10-01T02:00:10;1.63;;;1.52;;
67839;SDS011;54636;51.684;5.142;2022-10-01T02:02:37;1.92;;;1.83;;
67839;SDS011;54636;51.684;5.142;2022-10-01T02:05:05;1.25;;;1.15;;
67839;SDS011;54636;51.684;5.142;2022-10-01T02:21:27;2.58;;;1.58;;
67839;SDS011;54636;51.684;5.142;2022-10-01T02:26:24;4.38;;;1.50;;
67839;SDS011;54636;51.684;5.142;2022-10-01T02:28:53;1.75;;;1.10;;
67839;SDS011;54636;51.684;5.142;2022-10-01T02:31:23;2.30;;;1.20;;
67839;SDS011;54636;51.684;5.142;2022-10-01T02:33:50;1.10;;;1.10;;
67839;SDS011;54636;51.684;5.142;2022-10-01T02:36:19;2.70;;;1.30;;
67839;SDS011;54636;51.684;5.142;2022-10-01T02:38:45;1.65;;;0.98;;
67839;SDS011;54636;51.684;5.142;2022-10-01T02:41:15;3.28;;;1.63;;
67839;SDS011;54636;51.684;5.142;2022-10-01T02:43:52;1.38;;;1.05;;
67839;SDS011;54636;51.684;5.142;2022-10-01T02:46:43;0.70;;;0.70;;
67839;SDS011;54636;51.684;5.142;2022-10-01T02:49:16;0.80;;;0.80;;
67839;SDS011;54636;51.684;5.142;2022-10-01T02:51:58;2.00;;;1.10;;
67839;SDS011;54636;51.684;5.142;2022-10-01T02:54:53;3.85;;;0.93;;
67839;SDS011;54636;51.684;5.142;2022-10-01T02:57:36;0.80;;;0.80;;
67839;SDS011;54636;51.684;5.142;2022-10-01T03:00:04;1.33;;;1.23;;
67839;SDS011;54636;51.684;5.142;2022-10-01T03:02:34;0.70;;;0.70;;
67839;SDS011;54636;51.684;5.142;2022-10-01T03:05:00;0.90;;;0.75;;
67839;SDS011;54636;51.684;5.142;2022-10-01T03:07:27;3.03;;;0.63;;
67839;SDS011;54636;51.684;5.142;2022-10-01T03:09:54;1.02;;;1.02;;
67839;SDS011;54636;51.684;5.142;2022-10-01T03:12:20;1.00;;;1.00;;
67839;SDS011;54636;51.684;5.142;2022-10-01T03:14:47;1.40;;;1.30;;
67839;SDS011;54636;51.684;5.142;2022-10-01T03:17:13;1.08;;;1.00;;
67839;SDS011;54636;51.684;5.142;2022-10-01T03:19:39;1.42;;;1.10;;
67839;SDS011;54636;51.684;5.142;2022-10-01T03:22:05;2.78;;;0.93;;
67839;SDS011;54636;51.684;5.142;2022-10-01T03:24:31;1.23;;;1.15;;
67839;SDS011;54636;51.684;5.142;2022-10-01T03:26:57;3.90;;;1.20;;
67839;SDS011;54636;51.684;5.142;2022-10-01T03:29:23;0.98;;;0.98;;
67839;SDS011;54636;51.684;5.142;2022-10-01T03:31:49;2.28;;;1.10;;
67839;SDS011;54636;51.684;5.142;2022-10-01T03:34:14;0.98;;;0.98;;
67839;SDS011;54636;51.684;5.142;2022-10-01T03:36:40;1.38;;;1.27;;
67839;SDS011;54636;51.684;5.142;2022-10-01T03:39:05;0.93;;;0.70;;
67839;SDS011;54636;51.684;5.142;2022-10-01T03:41:31;2.03;;;0.68;;
67839;SDS011;54636;51.684;5.142;2022-10-01T03:43:56;1.40;;;1.10;;
67839;SDS011;54636;51.684;5.142;2022-10-01T03:46:22;1.55;;;1.10;;
67839;SDS011;54636;51.684;5.142;2022-10-01T03:48:47;1.58;;;1.15;;
67839;SDS011;54636;51.684;5.142;2022-10-01T03:51:13;1.63;;;1.10;;
67839;SDS011;54636;51.684;5.142;2022-10-01T03:53:39;1.20;;;1.10;;
67839;SDS011;54636;51.684;5.142;2022-10-01T03:56:04;0.90;;;0.90;;
67839;SDS011;54636;51.684;5.142;2022-10-01T03:58:30;0.95;;;0.95;;
67839;SDS011;54636;51.684;5.142;2022-10-01T04:00:55;3.33;;;1.00;;
67839;SDS011;54636;51.684;5.142;2022-10-01T04:03:22;0.82;;;0.82;;
67839;SDS011;54636;51.684;5.142;2022-10-01T04:05:48;0.90;;;0.90;;
67839;SDS011;54636;51.684;5.142;2022-10-01T04:08:13;0.80;;;0.80;;
67839;SDS011;54636;51.684;5.142;2022-10-01T04:10:40;0.85;;;0.85;;
67839;SDS011;54636;51.684;5.142;2022-10-01T04:13:06;1.95;;;1.00;;
67839;SDS011;54636;51.684;5.142;2022-10-01T04:15:31;0.82;;;0.82;;
67839;SDS011;54636;51.684;5.142;2022-10-01T04:17:57;1.08;;;0.77;;
67839;SDS011;54636;51.684;5.142;2022-10-01T04:20:23;1.75;;;0.85;;
67839;SDS011;54636;51.684;5.142;2022-10-01T04:22:49;2.17;;;0.90;;
67839;SDS011;54636;51.684;5.142;2022-10-01T04:25:15;0.80;;;0.80;;
67839;SDS011;54636;51.684;5.142;2022-10-01T04:27:41;5.78;;;0.95;;
67839;SDS011;54636;51.684;5.142;2022-10-01T04:30:19;1.08;;;1.00;;
67839;SDS011;54636;51.684;5.142;2022-10-01T04:32:45;1.00;;;1.00;;
67839;SDS011;54636;51.684;5.142;2022-10-01T04:35:10;0.98;;;0.90;;
67839;SDS011;54636;51.684;5.142;2022-10-01T04:37:35;1.00;;;1.00;;
67839;SDS011;54636;51.684;5.142;2022-10-01T04:40:01;0.98;;;0.98;;
67839;SDS011;54636;51.684;5.142;2022-10-01T04:42:26;1.05;;;1.05;;
67839;SDS011;54636;51.684;5.142;2022-10-01T04:44:52;1.10;;;1.00;;
67839;SDS011;54636;51.684;5.142;2022-10-01T04:47:17;1.88;;;1.20;;
67839;SDS011;54636;51.684;5.142;2022-10-01T04:49:42;1.30;;;1.20;;
67839;SDS011;54636;51.684;5.142;2022-10-01T04:52:08;1.27;;;1.10;;
67839;SDS011;54636;51.684;5.142;2022-10-01T04:54:33;2.05;;;1.00;;
67839;SDS011;54636;51.684;5.142;2022-10-01T04:56:59;4.22;;;1.50;;
67839;SDS011;54636;51.684;5.142;2022-10-01T04:59:24;1.17;;;1.13;;
67839;SDS011;54636;51.684;5.142;2022-10-01T05:01:50;1.50;;;1.50;;
67839;SDS011;54636;51.684;5.142;2022-10-01T05:04:15;1.85;;;1.75;;
67839;SDS011;54636;51.684;5.142;2022-10-01T05:06:41;2.00;;;1.90;;
67839;SDS011;54636;51.684;5.142;2022-10-01T05:09:06;2.20;;;2.00;;
67839;SDS011;54636;51.684;5.142;2022-10-01T05:11:31;1.70;;;1.67;;
67839;SDS011;54636;51.684;5.142;2022-10-01T05:13:58;1.88;;;1.80;;
67839;SDS011;54636;51.684;5.142;2022-10-01T05:16:24;2.42;;;2.33;;
67839;SDS011;54636;51.684;5.142;2022-10-01T05:18:49;2.83;;;2.63;;
67839;SDS011;54636;51.684;5.142;2022-10-01T05:21:14;3.58;;;2.83;;
67839;SDS011;54636;51.684;5.142;2022-10-01T05:23:40;3.55;;;3.00;;
67839;SDS011;54636;51.684;5.142;2022-10-01T05:26:06;3.95;;;3.65;;
67839;SDS011;54636;51.684;5.142;2022-10-01T05:28:33;3.88;;;3.65;;
67839;SDS011;54636;51.684;5.142;2022-10-01T05:31:00;5.20;;;3.75;;
67839;SDS011;54636;51.684;5.142;2022-10-01T05:33:27;4.57;;;4.00;;
67839;SDS011;54636;51.684;5.142;2022-10-01T05:35:54;4.40;;;3.88;;
67839;SDS011;54636;51.684;5.142;2022-10-01T05:38:20;4.15;;;3.95;;
67839;SDS011;54636;51.684;5.142;2022-10-01T05:40:45;6.43;;;5.25;;
67839;SDS011;54636;51.684;5.142;2022-10-01T05:43:11;5.45;;;5.03;;
67839;SDS011;54636;51.684;5.142;2022-10-01T05:45:37;4.70;;;4.47;;
67839;SDS011;54636;51.684;5.142;2022-10-01T05:48:04;5.60;;;5.30;;
67839;SDS011;54636;51.684;5.142;2022-10-01T05:50:32;5.97;;;5.47;;
67839;SDS011;54636;51.684;5.142;2022-10-01T05:53:00;12.88;;;7.03;;
67839;SDS011;54636;51.684;5.142;2022-10-01T05:55:26;6.57;;;6.18;;
67839;SDS011;54636;51.684;5.142;2022-10-01T05:58:04;7.15;;;6.55;;
67839;SDS011;54636;51.684;5.142;2022-10-01T06:00:34;7.55;;;7.05;;
67839;SDS011;54636;51.684;5.142;2022-10-01T06:03:01;14.25;;;8.07;;
67839;SDS011;54636;51.684;5.142;2022-10-01T06:05:28;11.80;;;8.07;;
67839;SDS011;54636;51.684;5.142;2022-10-01T06:07:55;9.25;;;8.35;;
67839;SDS011;54636;51.684;5.142;2022-10-01T06:10:21;9.20;;;7.90;;
67839;SDS011;54636;51.684;5.142;2022-10-01T06:12:48;11.38;;;8.70;;
67839;SDS011;54636;51.684;5.142;2022-10-01T06:15:14;9.07;;;8.30;;
67839;SDS011;54636;51.684;5.142;2022-10-01T06:17:40;8.80;;;8.00;;
67839;SDS011;54636;51.684;5.142;2022-10-01T06:20:15;8.23;;;7.50;;
67839;SDS011;54636;51.684;5.142;2022-10-01T06:22:42;12.07;;;9.05;;
67839;SDS011;54636;51.684;5.142;2022-10-01T06:25:11;8.85;;;8.05;;
67839;SDS011;54636;51.684;5.142;2022-10-01T06:27:39;11.93;;;8.90;;
67839;SDS011;54636;51.684;5.142;2022-10-01T06:30:04;8.57;;;7.93;;
67839;SDS011;54636;51.684;5.142;2022-10-01T06:32:31;11.13;;;7.90;;
67839;SDS011;54636;51.684;5.142;2022-10-01T06:34:56;9.80;;;8.52;;
67839;SDS011;54636;51.684;5.142;2022-10-01T06:37:21;16.45;;;9.07;;
67839;SDS011;54636;51.684;5.142;2022-10-01T06:39:47;5.85;;;4.20;;
67839;SDS011;54636;51.684;5.142;2022-10-01T06:42:13;9.13;;;8.40;;
67839;SDS011;54636;51.684;5.142;2022-10-01T06:44:38;12.30;;;8.10;;
67839;SDS011;54636;51.684;5.142;2022-10-01T06:47:03;13.07;;;8.20;;
67839;SDS011;54636;51.684;5.142;2022-10-01T06:49:29;14.98;;;8.18;;
67839;SDS011;54636;51.684;5.142;2022-10-01T06:51:55;18.83;;;8.30;;
67839;SDS011;54636;51.684;5.142;2022-10-01T06:54:39;8.07;;;7.30;;
67839;SDS011;54636;51.684;5.142;2022-10-01T06:57:04;13.40;;;7.25;;
67839;SDS011;54636;51.684;5.142;2022-10-01T06:59:30;11.98;;;7.55;;
67839;SDS011;54636;51.684;5.142;2022-10-01T07:01:55;14.02;;;8.80;;
67839;SDS011;54636;51.684;5.142;2022-10-01T07:04:20;11.57;;;8.77;;
67839;SDS011;54636;51.684;5.142;2022-10-01T07:06:46;9.75;;;8.68;;
67839;SDS011;54636;51.684;5.142;2022-10-01T07:09:11;11.20;;;8.02;;
67839;SDS011;54636;51.684;5.142;2022-10-01T07:11:36;10.25;;;8.27;;
67839;SDS011;54636;51.684;5.142;2022-10-01T07:14:05;10.18;;;7.43;;
67839;SDS011;54636;51.684;5.142;2022-10-01T07:16:33;7.93;;;7.32;;
67839;SDS011;54636;51.684;5.142;2022-10-01T07:19:01;8.98;;;6.97;;
67839;SDS011;54636;51.684;5.142;2022-10-01T07:21:26;8.23;;;6.70;;
67839;SDS011;54636;51.684;5.142;2022-10-01T07:23:52;12.55;;;6.85;;
67839;SDS011;54636;51.684;5.142;2022-10-01T07:26:18;10.20;;;6.85;;
67839;SDS011;54636;51.684;5.142;2022-10-01T07:28:43;7.47;;;6.70;;
67839;SDS011;54636;51.684;5.142;2022-10-01T07:31:09;10.38;;;6.40;;
67839;SDS011;54636;51.684;5.142;2022-10-01T07:33:36;13.55;;;7.05;;
67839;SDS011;54636;51.684;5.142;2022-10-01T07:36:03;6.10;;;5.07;;
67839;SDS011;54636;51.684;5.142;2022-10-01T07:38:30;5.03;;;4.63;;
67839;SDS011;54636;51.684;5.142;2022-10-01T07:40:57;5.88;;;4.43;;
67839;SDS011;54636;51.684;5.142;2022-10-01T07:43:23;9.05;;;3.55;;
67839;SDS011;54636;51.684;5.142;2022-10-01T07:45:49;6.03;;;2.53;;
67839;SDS011;54636;51.684;5.142;2022-10-01T07:48:16;4.70;;;2.72;;
67839;SDS011;54636;51.684;5.142;2022-10-01T07:50:43;7.00;;;2.83;;
67839;SDS011;54636;51.684;5.142;2022-10-01T07:53:12;5.78;;;2.70;;
67839;SDS011;54636;51.684;5.142;2022-10-01T07:55:37;5.75;;;2.33;;
67839;SDS011;54636;51.684;5.142;2022-10-01T07:58:03;5.65;;;2.33;;
67839;SDS011;54636;51.684;5.142;2022-10-01T08:00:29;7.53;;;2.50;;
67839;SDS011;54636;51.684;5.142;2022-10-01T08:02:57;2.63;;;1.90;;
67839;SDS011;54636;51.684;5.142;2022-10-01T08:05:24;3.20;;;1.95;;
67839;SDS011;54636;51.684;5.142;2022-10-01T08:07:52;3.55;;;2.00;;
67839;SDS011;54636;51.684;5.142;2022-10-01T08:10:22;5.20;;;2.25;;
67839;SDS011;54636;51.684;5.142;2022-10-01T08:12:48;4.93;;;2.03;;
67839;SDS011;54636;51.684;5.142;2022-10-01T08:15:14;2.88;;;1.48;;
67839;SDS011;54636;51.684;5.142;2022-10-01T08:17:41;4.65;;;1.77;;
67839;SDS011;54636;51.684;5.142;2022-10-01T08:20:07;3.30;;;1.63;;
67839;SDS011;54636;51.684;5.142;2022-10-01T08:22:34;3.28;;;1.92;;
67839;SDS011;54636;51.684;5.142;2022-10-01T08:25:00;3.08;;;2.00;;
67839;SDS011;54636;51.684;5.142;2022-10-01T08:27:26;5.07;;;1.98;;
67839;SDS011;54636;51.684;5.142;2022-10-01T08:29:52;4.45;;;2.33;;
67839;SDS011;54636;51.684;5.142;2022-10-01T08:32:17;5.68;;;2.22;;
67839;SDS011;54636;51.684;5.142;2022-10-01T08:34:43;3.65;;;1.77;;
67839;SDS011;54636;51.684;5.142;2022-10-01T08:37:09;4.13;;;2.13;;
67839;SDS011;54636;51.684;5.142;2022-10-01T08:39:34;5.85;;;2.38;;
67839;SDS011;54636;51.684;5.142;2022-10-01T08:42:09;4.93;;;2.75;;
67839;SDS011;54636;51.684;5.142;2022-10-01T08:44:48;10.63;;;2.90;;
67839;SDS011;54636;51.684;5.142;2022-10-01T08:47:21;8.85;;;3.88;;
67839;SDS011;54636;51.684;5.142;2022-10-01T08:49:52;7.93;;;3.25;;
67839;SDS011;54636;51.684;5.142;2022-10-01T08:52:29;6.35;;;3.75;;
67839;SDS011;54636;51.684;5.142;2022-10-01T08:54:59;7.43;;;3.70;;
67839;SDS011;54636;51.684;5.142;2022-10-01T08:57:35;5.57;;;3.28;;
67839;SDS011;54636;51.684;5.142;2022-10-01T09:00:09;7.72;;;3.55;;
67839;SDS011;54636;51.684;5.142;2022-10-01T09:02:37;9.38;;;3.80;;
67839;SDS011;54636;51.684;5.142;2022-10-01T09:05:05;10.80;;;4.13;;
67839;SDS011;54636;51.684;5.142;2022-10-01T09:07:44;12.18;;;4.65;;
67839;SDS011;54636;51.684;5.142;2022-10-01T09:12:47;14.38;;;3.75;;
67839;SDS011;54636;51.684;5.142;2022-10-01T09:21:18;12.73;;;2.92;;
67839;SDS011;54636;51.684;5.142;2022-10-01T09:24:03;5.32;;;1.77;;
67839;SDS011;54636;51.684;5.142;2022-10-01T09:26:36;12.52;;;2.92;;
67839;SDS011;54636;51.684;5.142;2022-10-01T09:29:07;9.80;;;2.67;;
67839;SDS011;54636;51.684;5.142;2022-10-01T09:31:42;8.00;;;2.25;;
67839;SDS011;54636;51.684;5.142;2022-10-01T09:34:21;9.40;;;2.35;;
67839;SDS011;54636;51.684;5.142;2022-10-01T09:39:33;11.98;;;2.55;;
67839;SDS011;54636;51.684;5.142;2022-10-01T09:42:06;13.18;;;2.50;;
67839;SDS011;54636;51.684;5.142;2022-10-01T09:44:32;11.93;;;2.85;;
67839;SDS011;54636;51.684;5.142;2022-10-01T09:46:59;9.43;;;2.20;;
67839;SDS011;54636;51.684;5.142;2022-10-01T09:49:36;8.82;;;1.95;;
67839;SDS011;54636;51.684;5.142;2022-10-01T09:52:12;8.98;;;2.30;;
67839;SDS011;54636;51.684;5.142;2022-10-01T09:54:53;15.45;;;3.05;;
67839;SDS011;54636;51.684;5.142;2022-10-01T09:57:25;11.63;;;2.25;;
67839;SDS011;54636;51.684;5.142;2022-10-01T10:02:54;12.88;;;2.60;;
67839;SDS011;54636;51.684;5.142;2022-10-01T10:07:53;11.18;;;2.38;;
67839;SDS011;54636;51.684;5.142;2022-10-01T10:10:28;5.65;;;1.73;;
67839;SDS011;54636;51.684;5.142;2022-10-01T10:15:34;16.98;;;2.42;;
67839;SDS011;54636;51.684;5.142;2022-10-01T10:18:04;8.40;;;1.90;;
67839;SDS011;54636;51.684;5.142;2022-10-01T10:20:38;15.13;;;2.65;;
67839;SDS011;54636;51.684;5.142;2022-10-01T10:23:15;11.38;;;2.30;;
67839;SDS011;54636;51.684;5.142;2022-10-01T10:25:43;10.82;;;2.00;;
67839;SDS011;54636;51.684;5.142;2022-10-01T10:28:37;10.20;;;2.15;;
67839;SDS011;54636;51.684;5.142;2022-10-01T10:31:24;10.93;;;2.50;;
67839;SDS011;54636;51.684;5.142;2022-10-01T10:36:29;12.65;;;2.10;;
67839;SDS011;54636;51.684;5.142;2022-10-01T10:41:24;14.57;;;2.65;;
67839;SDS011;54636;51.684;5.142;2022-10-01T10:43:53;10.88;;;1.88;;
67839;SDS011;54636;51.684;5.142;2022-10-01T10:46:24;8.23;;;2.83;;
67839;SDS011;54636;51.684;5.142;2022-10-01T10:49:37;8.85;;;1.90;;
67839;SDS011;54636;51.684;5.142;2022-10-01T10:51:50;15.27;;;3.20;;
67839;SDS011;54636;51.684;5.142;2022-10-01T10:56:51;12.07;;;2.30;;
67839;SDS011;54636;51.684;5.142;2022-10-01T10:59:24;12.43;;;3.70;;
67839;SDS011;54636;51.684;5.142;2022-10-01T11:01:50;11.10;;;2.97;;
67839;SDS011;54636;51.684;5.142;2022-10-01T11:04:27;12.23;;;2.65;;
67839;SDS011;54636;51.684;5.142;2022-10-01T11:06:59;14.75;;;2.17;;
67839;SDS011;54636;51.684;5.142;2022-10-01T11:12:11;6.38;;;1.88;;
67839;SDS011;54636;51.684;5.142;2022-10-01T11:25:17;10.65;;;2.55;;
67839;SDS011;54636;51.684;5.142;2022-10-01T11:27:55;14.52;;;2.80;;
67839;SDS011;54636;51.684;5.142;2022-10-01T11:30:30;11.23;;;2.60;;
67839;SDS011;54636;51.684;5.142;2022-10-01T11:33:02;8.73;;;2.28;;
67839;SDS011;54636;51.684;5.142;2022-10-01T11:35:51;8.05;;;2.97;;
67839;SDS011;54636;51.684;5.142;2022-10-01T11:41:13;8.18;;;2.40;;
67839;SDS011;54636;51.684;5.142;2022-10-01T11:43:42;10.68;;;2.58;;
67839;SDS011;54636;51.684;5.142;2022-10-01T11:46:27;9.52;;;2.78;;
67839;SDS011;54636;51.684;5.142;2022-10-01T11:48:58;9.48;;;2.42;;
67839;SDS011;54636;51.684;5.142;2022-10-01T11:51:38;8.00;;;1.92;;
67839;SDS011;54636;51.684;5.142;2022-10-01T11:54:13;9.38;;;2.72;;
67839;SDS011;54636;51.684;5.142;2022-10-01T11:56:46;10.30;;;2.40;;
67839;SDS011;54636;51.684;5.142;2022-10-01T11:59:38;7.15;;;2.50;;
67839;SDS011;54636;51.684;5.142;2022-10-01T12:04:48;8.07;;;1.90;;
67839;SDS011;54636;51.684;5.142;2022-10-01T12:07:19;11.50;;;2.60;;
67839;SDS011;54636;51.684;5.142;2022-10-01T12:12:53;10.93;;;2.47;;
67839;SDS011;54636;51.684;5.142;2022-10-01T12:18:06;9.50;;;1.98;;
67839;SDS011;54636;51.684;5.142;2022-10-01T12:20:45;16.30;;;2.53;;
67839;SDS011;54636;51.684;5.142;2022-10-01T12:23:15;16.15;;;2.38;;
67839;SDS011;54636;51.684;5.142;2022-10-01T12:31:08;8.98;;;2.50;;
67839;SDS011;54636;51.684;5.142;2022-10-01T12:33:54;11.07;;;2.45;;
67839;SDS011;54636;51.684;5.142;2022-10-01T12:53:10;11.45;;;2.33;;
67839;SDS011;54636;51.684;5.142;2022-10-01T12:59:17;8.77;;;2.22;;
67839;SDS011;54636;51.684;5.142;2022-10-01T13:01:22;9.30;;;2.42;;
67839;SDS011;54636;51.684;5.142;2022-10-01T13:06:47;10.23;;;2.47;;
67839;SDS011;54636;51.684;5.142;2022-10-01T13:09:23;10.75;;;2.40;;
67839;SDS011;54636;51.684;5.142;2022-10-01T13:12:22;11.82;;;2.53;;
67839;SDS011;54636;51.684;5.142;2022-10-01T13:14:44;10.00;;;2.50;;
67839;SDS011;54636;51.684;5.142;2022-10-01T13:17:14;11.57;;;2.47;;
67839;SDS011;54636;51.684;5.142;2022-10-01T13:19:57;7.45;;;2.22;;
67839;SDS011;54636;51.684;5.142;2022-10-01T13:22:39;15.63;;;2.45;;
67839;SDS011;54636;51.684;5.142;2022-10-01T13:31:50;12.85;;;2.25;;
67839;SDS011;54636;51.684;5.142;2022-10-01T13:34:31;12.07;;;2.60;;
67839;SDS011;54636;51.684;5.142;2022-10-01T13:37:12;11.30;;;2.67;;
67839;SDS011;54636;51.684;5.142;2022-10-01T13:39:39;11.90;;;2.53;;
67839;SDS011;54636;51.684;5.142;2022-10-01T13:42:20;15.05;;;2.95;;
67839;SDS011;54636;51.684;5.142;2022-10-01T13:44:52;9.68;;;2.92;;
67839;SDS011;54636;51.684;5.142;2022-10-01T13:47:20;7.55;;;1.95;;
67839;SDS011;54636;51.684;5.142;2022-10-01T13:49:54;6.55;;;1.90;;
67839;SDS011;54636;51.684;5.142;2022-10-01T13:52:23;8.57;;;2.75;;
67839;SDS011;54636;51.684;5.142;2022-10-01T13:54:50;10.05;;;2.08;;
67839;SDS011;54636;51.684;5.142;2022-10-01T13:57:26;8.97;;;2.07;;
67839;SDS011;54636;51.684;5.142;2022-10-01T14:00:03;6.07;;;1.92;;
67839;SDS011;54636;51.684;5.142;2022-10-01T14:03:05;6.45;;;1.83;;
67839;SDS011;54636;51.684;5.142;2022-10-01T14:05:57;9.82;;;2.33;;
67839;SDS011;54636;51.684;5.142;2022-10-01T14:08:30;15.85;;;2.90;;
67839;SDS011;54636;51.684;5.142;2022-10-01T14:11:00;11.35;;;2.75;;
67839;SDS011;54636;51.684;5.142;2022-10-01T14:13:48;7.97;;;2.15;;
67839;SDS011;54636;51.684;5.142;2022-10-01T14:16:36;11.85;;;2.55;;
67839;SDS011;54636;51.684;5.142;2022-10-01T14:19:09;4.10;;;1.52;;
67839;SDS011;54636;51.684;5.142;2022-10-01T14:30:01;14.13;;;2.30;;
67839;SDS011;54636;51.684;5.142;2022-10-01T14:35:23;13.35;;;2.80;;
67839;SDS011;54636;51.684;5.142;2022-10-01T14:37:58;15.93;;;2.72;;
67839;SDS011;54636;51.684;5.142;2022-10-01T14:40:25;8.38;;;2.17;;
67839;SDS011;54636;51.684;5.142;2022-10-01T14:43:02;13.15;;;2.20;;
67839;SDS011;54636;51.684;5.142;2022-10-01T14:45:47;8.82;;;2.15;;
67839;SDS011;54636;51.684;5.142;2022-10-01T14:48:16;21.05;;;3.60;;
67839;SDS011;54636;51.684;5.142;2022-10-01T14:50:41;13.80;;;2.80;;
67839;SDS011;54636;51.684;5.142;2022-10-01T14:53:14;20.40;;;3.50;;
67839;SDS011;54636;51.684;5.142;2022-10-01T14:55:41;9.38;;;2.55;;
67839;SDS011;54636;51.684;5.142;2022-10-01T14:58:10;13.80;;;3.28;;
67839;SDS011;54636;51.684;5.142;2022-10-01T15:00:49;19.10;;;2.92;;
67839;SDS011;54636;51.684;5.142;2022-10-01T15:03:16;10.70;;;3.30;;
67839;SDS011;54636;51.684;5.142;2022-10-01T15:05:43;16.67;;;2.85;;
67839;SDS011;54636;51.684;5.142;2022-10-01T15:10:55;16.08;;;3.33;;
67839;SDS011;54636;51.684;5.142;2022-10-01T15:13:31;13.85;;;2.97;;
67839;SDS011;54636;51.684;5.142;2022-10-01T15:16:00;13.82;;;3.20;;
67839;SDS011;54636;51.684;5.142;2022-10-01T15:18:26;13.15;;;2.42;;
67839;SDS011;54636;51.684;5.142;2022-10-01T15:20:56;18.40;;;3.22;;
67839;SDS011;54636;51.684;5.142;2022-10-01T15:23:24;10.35;;;2.10;;
67839;SDS011;54636;51.684;5.142;2022-10-01T15:25:52;10.90;;;2.33;;
67839;SDS011;54636;51.684;5.142;2022-10-01T15:28:33;17.15;;;3.13;;
67839;SDS011;54636;51.684;5.142;2022-10-01T15:31:00;10.83;;;2.37;;
67839;SDS011;54636;51.684;5.142;2022-10-01T15:33:37;6.57;;;2.45;;
67839;SDS011;54636;51.684;5.142;2022-10-01T15:36:05;13.63;;;2.97;;
67839;SDS011;54636;51.684;5.142;2022-10-01T15:38:33;6.40;;;2.00;;
67839;SDS011;54636;51.684;5.142;2022-10-01T15:41:00;8.43;;;2.17;;
67839;SDS011;54636;51.684;5.142;2022-10-01T15:48:42;14.98;;;2.75;;
67839;SDS011;54636;51.684;5.142;2022-10-01T15:51:19;12.52;;;2.42;;
67839;SDS011;54636;51.684;5.142;2022-10-01T15:53:48;6.45;;;2.10;;
67839;SDS011;54636;51.684;5.142;2022-10-01T15:56:16;13.85;;;2.70;;
67839;SDS011;54636;51.684;5.142;2022-10-01T15:58:45;12.68;;;2.60;;
67839;SDS011;54636;51.684;5.142;2022-10-01T16:01:27;12.35;;;2.97;;
67839;SDS011;54636;51.684;5.142;2022-10-01T16:04:05;8.32;;;2.38;;
67839;SDS011;54636;51.684;5.142;2022-10-01T16:06:34;8.95;;;2.95;;
67839;SDS011;54636;51.684;5.142;2022-10-01T16:19:42;10.52;;;3.13;;
67839;SDS011;54636;51.684;5.142;2022-10-01T16:24:43;13.40;;;2.80;;
67839;SDS011;54636;51.684;5.142;2022-10-01T16:27:14;9.70;;;2.38;;
67839;SDS011;54636;51.684;5.142;2022-10-01T16:29:48;16.13;;;3.83;;
67839;SDS011;54636;51.684;5.142;2022-10-01T16:32:17;12.27;;;2.60;;
67839;SDS011;54636;51.684;5.142;2022-10-01T16:34:43;10.00;;;3.15;;
67839;SDS011;54636;51.684;5.142;2022-10-01T16:37:08;15.88;;;2.50;;
67839;SDS011;54636;51.684;5.142;2022-10-01T16:39:34;9.70;;;2.78;;
67839;SDS011;54636;51.684;5.142;2022-10-01T16:41:59;11.45;;;2.65;;
67839;SDS011;54636;51.684;5.142;2022-10-01T16:44:25;12.75;;;3.15;;
67839;SDS011;54636;51.684;5.142;2022-10-01T16:46:51;11.10;;;2.85;;
67839;SDS011;54636;51.684;5.142;2022-10-01T16:49:17;12.73;;;2.97;;
67839;SDS011;54636;51.684;5.142;2022-10-01T16:51:42;6.28;;;1.70;;
67839;SDS011;54636;51.684;5.142;2022-10-01T16:54:15;11.73;;;2.40;;
67839;SDS011;54636;51.684;5.142;2022-10-01T16:56:46;13.65;;;2.80;;
67839;SDS011;54636;51.684;5.142;2022-10-01T16:59:12;11.90;;;3.10;;
67839;SDS011;54636;51.684;5.142;2022-10-01T17:01:38;8.55;;;2.30;;
67839;SDS011;54636;51.684;5.142;2022-10-01T17:04:03;14.40;;;2.70;;
67839;SDS011;54636;51.684;5.142;2022-10-01T17:06:29;8.25;;;2.38;;
67839;SDS011;54636;51.684;5.142;2022-10-01T17:08:54;12.13;;;2.55;;
67839;SDS011;54636;51.684;5.142;2022-10-01T17:11:20;12.25;;;2.80;;
67839;SDS011;54636;51.684;5.142;2022-10-01T17:13:48;15.38;;;3.03;;
67839;SDS011;54636;51.684;5.142;2022-10-01T17:16:13;10.40;;;2.88;;
67839;SDS011;54636;51.684;5.142;2022-10-01T17:18:39;9.88;;;3.30;;
67839;SDS011;54636;51.684;5.142;2022-10-01T17:21:04;15.95;;;2.85;;
67839;SDS011;54636;51.684;5.142;2022-10-01T17:23:30;9.25;;;2.63;;
67839;SDS011;54636;51.684;5.142;2022-10-01T17:25:55;15.40;;;3.65;;
67839;SDS011;54636;51.684;5.142;2022-10-01T17:28:20;10.80;;;2.50;;